Time,TemperatureF,DewpointF,PressureIn,WindDirection,WindDirectionDegrees,WindSpeedMPH,WindSpeedGustMPH,Humidity,HourlyPrecipIn,Conditions,Clouds,dailyrainin,SoftwareType,DateUTC
2013-02-28 00:01:00,48.0,0.0,-100.00,NNE,30,7.0,15.0,13,-99.99,,,-99.99,,2013-02-28 08:01:00,
2013-02-28 00:11:00,47.0,-1.0,-100.00,NNE,25,6.0,13.0,13,-99.99,,,-99.99,,2013-02-28 08:11:00,
2013-02-28 00:21:00,47.0,-1.0,-100.00,North,2,6.0,15.0,13,-99.99,,,-99.99,,2013-02-28 08:21:00,
2013-02-28 00:31:00,47.0,-1.0,-100.00,NNE,19,5.0,12.0,13,-99.99,,,-99.99,,2013-02-28 08:31:00,
2013-02-28 00:42:00,47.0,-1.0,-100.00,NNE,19,7.0,17.0,13,-99.99,,,-99.99,,2013-02-28 08:42:00,
2013-02-28 00:52:00,47.0,-1.0,-100.00,NNE,18,6.0,10.0,13,-99.99,,,-99.99,,2013-02-28 08:52:00,
2013-02-28 01:02:00,47.0,-1.0,-100.00,North,359,4.0,9.0,13,-99.99,,,-99.99,,2013-02-28 09:02:00,
2013-02-28 01:11:00,47.0,-1.0,-100.00,NNE,20,4.0,8.0,13,-99.99,,,-99.99,,2013-02-28 09:11:00,
2013-02-28 01:21:00,47.0,-1.0,-100.00,NNE,21,6.0,15.0,13,-99.99,,,-99.99,,2013-02-28 09:21:00,
2013-02-28 01:31:00,48.0,0.0,-100.00,NE,34,8.0,15.0,13,-99.99,,,-99.99,,2013-02-28 09:31:00,
2013-02-28 01:41:00,48.0,0.0,-100.00,NNE,33,5.0,17.0,13,-99.99,,,-99.99,,2013-02-28 09:41:00,
2013-02-28 01:52:00,48.0,0.0,-100.00,NNE,19,7.0,21.0,13,-99.99,,,-99.99,,2013-02-28 09:52:00,
2013-02-28 02:01:00,48.0,0.0,-100.00,NNE,33,7.0,13.0,13,-99.99,,,-99.99,,2013-02-28 10:01:00,
2013-02-28 02:11:00,48.0,0.0,-100.00,NE,40,10.0,19.0,13,-99.99,,,-99.99,,2013-02-28 10:11:00,
2013-02-28 02:21:00,48.0,0.0,-100.00,NE,41,10.0,20.0,13,-99.99,,,-99.99,,2013-02-28 10:21:00,
2013-02-28 02:31:00,48.0,0.0,-100.00,NE,38,11.0,18.0,13,-99.99,,,-99.99,,2013-02-28 10:31:00,
2013-02-28 02:42:00,48.0,0.0,-100.00,NNE,31,9.0,18.0,13,-99.99,,,-99.99,,2013-02-28 10:42:00,
2013-02-28 02:51:00,48.0,0.0,-100.00,NNE,18,8.0,13.0,13,-99.99,,,-99.99,,2013-02-28 10:51:00,
2013-02-28 03:01:00,48.0,0.0,-100.00,NNE,29,10.0,18.0,13,-99.99,,,-99.99,,2013-02-28 11:01:00,
2013-02-28 03:11:00,48.0,0.0,-100.00,NNE,29,12.0,22.0,13,-99.99,,,-99.99,,2013-02-28 11:11:00,
2013-02-28 03:21:00,48.0,0.0,-100.00,NNE,33,12.0,18.0,13,-99.99,,,-99.99,,2013-02-28 11:21:00,
2013-02-28 03:31:00,48.0,0.0,-100.00,NE,35,14.0,23.0,13,-99.99,,,-99.99,,2013-02-28 11:31:00,
2013-02-28 03:41:00,48.0,0.0,-100.00,NE,35,13.0,20.0,13,-99.99,,,-99.99,,2013-02-28 11:41:00,
2013-02-28 03:52:00,48.0,0.0,-100.00,NE,38,12.0,19.0,13,-99.99,,,-99.99,,2013-02-28 11:52:00,
2013-02-28 04:01:00,48.0,0.0,-100.00,NE,38,11.0,21.0,13,-99.99,,,-99.99,,2013-02-28 12:01:00,
2013-02-28 04:11:00,48.0,0.0,-100.00,NE,41,11.0,16.0,13,-99.99,,,-99.99,,2013-02-28 12:11:00,
2013-02-28 04:21:00,47.0,-1.0,-100.00,NE,38,11.0,17.0,13,-99.99,,,-99.99,,2013-02-28 12:21:00,
2013-02-28 04:31:00,47.0,-1.0,-100.00,NE,34,12.0,17.0,13,-99.99,,,-99.99,,2013-02-28 12:31:00,
2013-02-28 04:42:00,48.0,0.0,-100.00,NE,37,11.0,17.0,13,-99.99,,,-99.99,,2013-02-28 12:42:00,
2013-02-28 04:52:00,47.0,-1.0,-100.00,NNE,30,11.0,15.0,13,-99.99,,,-99.99,,2013-02-28 12:52:00,
2013-02-28 05:01:00,47.0,-1.0,-100.00,NNE,33,10.0,17.0,13,-99.99,,,-99.99,,2013-02-28 13:01:00,
2013-02-28 05:11:00,47.0,-1.0,-100.00,NNE,33,10.0,17.0,13,-99.99,,,-99.99,,2013-02-28 13:11:00,
2013-02-28 05:21:00,47.0,-1.0,-100.00,NNE,33,10.0,17.0,13,-99.99,,,-99.99,,2013-02-28 13:21:00,
2013-02-28 05:31:00,47.0,-1.0,-100.00,North,10,7.0,12.0,13,-99.99,,,-99.99,,2013-02-28 13:31:00,
2013-02-28 05:42:00,47.0,-1.0,-100.00,North,11,7.0,12.0,13,-99.99,,,-99.99,,2013-02-28 13:42:00,
2013-02-28 05:52:00,47.0,-1.0,-100.00,North,10,7.0,14.0,13,-99.99,,,-99.99,,2013-02-28 13:52:00,
2013-02-28 06:01:00,47.0,0.0,-100.00,NNE,19,8.0,17.0,14,-99.99,,,-99.99,,2013-02-28 14:01:00,
2013-02-28 06:11:00,48.0,0.0,-100.00,NNE,22,11.0,19.0,13,-99.99,,,-99.99,,2013-02-28 14:11:00,
2013-02-28 06:21:00,47.0,-1.0,-100.00,NNE,24,10.0,16.0,13,-99.99,,,-99.99,,2013-02-28 14:21:00,
2013-02-28 06:31:00,47.0,-1.0,-100.00,NNE,29,11.0,17.0,13,-99.99,,,-99.99,,2013-02-28 14:31:00,
2013-02-28 06:42:00,47.0,0.0,-100.00,NNE,31,11.0,19.0,14,-99.99,,,-99.99,,2013-02-28 14:42:00,
2013-02-28 06:52:00,47.0,0.0,-100.00,NNE,31,9.0,19.0,14,-99.99,,,-99.99,,2013-02-28 14:52:00,
2013-02-28 07:01:00,47.0,-1.0,-100.00,NE,34,11.0,18.0,13,-99.99,,,-99.99,,2013-02-28 15:01:00,
2013-02-28 07:11:00,48.0,0.0,-100.00,NNE,30,11.0,18.0,13,-99.99,,,-99.99,,2013-02-28 15:11:00,
2013-02-28 07:21:00,48.0,0.0,-100.00,NE,36,10.0,18.0,13,-99.99,,,-99.99,,2013-02-28 15:21:00,
2013-02-28 07:31:00,49.0,0.0,-100.00,NE,36,9.0,18.0,13,-99.99,,,-99.99,,2013-02-28 15:31:00,
2013-02-28 07:41:00,49.0,0.0,-100.00,NE,36,9.0,18.0,13,-99.99,,,-99.99,,2013-02-28 15:41:00,
2013-02-28 07:52:00,49.0,0.0,-100.00,NE,35,12.0,20.0,13,-99.99,,,-99.99,,2013-02-28 15:52:00,
2013-02-28 08:01:00,50.0,1.0,-100.00,NNE,31,13.0,22.0,13,-99.99,,,-99.99,,2013-02-28 16:01:00,
2013-02-28 08:11:00,50.0,1.0,-100.00,NE,35,11.0,17.0,13,-99.99,,,-99.99,,2013-02-28 16:11:00,
2013-02-28 08:21:00,50.0,1.0,-100.00,NE,43,13.0,22.0,13,-99.99,,,-99.99,,2013-02-28 16:21:00,
2013-02-28 08:31:00,50.0,1.0,-100.00,NE,43,13.0,22.0,13,-99.99,,,-99.99,,2013-02-28 16:31:00,
2013-02-28 08:42:00,52.0,1.0,-100.00,NE,51,16.0,28.0,12,-99.99,,,-99.99,,2013-02-28 16:42:00,
2013-02-28 08:52:00,52.0,1.0,-100.00,NE,44,15.0,25.0,12,-99.99,,,-99.99,,2013-02-28 16:52:00,
2013-02-28 09:01:00,52.0,1.0,-100.00,NE,42,17.0,26.0,12,-99.99,,,-99.99,,2013-02-28 17:01:00,
2013-02-28 09:11:00,52.0,1.0,-100.00,NE,44,16.0,24.0,12,-99.99,,,-99.99,,2013-02-28 17:11:00,
2013-02-28 09:21:00,53.0,2.0,-100.00,NE,48,18.0,28.0,12,-99.99,,,-99.99,,2013-02-28 17:21:00,
2013-02-28 09:32:00,53.0,2.0,-100.00,NE,47,16.0,25.0,12,-99.99,,,-99.99,,2013-02-28 17:32:00,
2013-02-28 09:41:00,53.0,2.0,-100.00,NE,43,17.0,25.0,12,-99.99,,,-99.99,,2013-02-28 17:41:00,
2013-02-28 09:52:00,54.0,1.0,-100.00,NE,45,16.0,23.0,11,-99.99,,,-99.99,,2013-02-28 17:52:00,
2013-02-28 10:01:00,54.0,1.0,-100.00,NE,45,16.0,23.0,11,-99.99,,,-99.99,,2013-02-28 18:01:00,
2013-02-28 10:11:00,55.0,1.0,-100.00,NE,48,17.0,24.0,11,-99.99,,,-99.99,,2013-02-28 18:11:00,
2013-02-28 10:21:00,55.0,1.0,-100.00,NE,52,16.0,24.0,11,-99.99,,,-99.99,,2013-02-28 18:21:00,
2013-02-28 10:31:00,56.0,2.0,-100.00,NE,45,15.0,25.0,11,-99.99,,,-99.99,,2013-02-28 18:31:00,
2013-02-28 10:42:00,56.0,2.0,-100.00,NE,36,17.0,27.0,11,-99.99,,,-99.99,,2013-02-28 18:42:00,
2013-02-28 10:52:00,56.0,4.0,-100.00,NE,34,16.0,25.0,12,-99.99,,,-99.99,,2013-02-28 18:52:00,
2013-02-28 11:01:00,56.0,2.0,-100.00,NE,35,16.0,22.0,11,-99.99,,,-99.99,,2013-02-28 19:01:00,
2013-02-28 11:11:00,57.0,3.0,-100.00,NE,40,15.0,25.0,11,-99.99,,,-99.99,,2013-02-28 19:11:00,
2013-02-28 11:21:00,57.0,3.0,-100.00,NE,38,15.0,25.0,11,-99.99,,,-99.99,,2013-02-28 19:21:00,
2013-02-28 11:31:00,57.0,3.0,-100.00,NNE,29,15.0,23.0,11,-99.99,,,-99.99,,2013-02-28 19:31:00,
2013-02-28 11:41:00,57.0,3.0,-100.00,NE,36,14.0,23.0,11,-99.99,,,-99.99,,2013-02-28 19:41:00,
2013-02-28 11:51:00,58.0,4.0,-100.00,NE,35,13.0,20.0,11,-99.99,,,-99.99,,2013-02-28 19:51:00,
2013-02-28 12:01:00,58.0,4.0,-100.00,NE,34,13.0,22.0,11,-99.99,,,-99.99,,2013-02-28 20:01:00,
2013-02-28 12:11:00,58.0,4.0,-100.00,NE,44,12.0,21.0,11,-99.99,,,-99.99,,2013-02-28 20:11:00,
2013-02-28 12:21:00,59.0,5.0,-100.00,NE,43,12.0,24.0,11,-99.99,,,-99.99,,2013-02-28 20:21:00,
2013-02-28 12:31:00,58.0,4.0,-100.00,NE,50,14.0,24.0,11,-99.99,,,-99.99,,2013-02-28 20:31:00,
2013-02-28 12:41:00,58.0,4.0,-100.00,NNE,32,13.0,24.0,11,-99.99,,,-99.99,,2013-02-28 20:41:00,
2013-02-28 12:52:00,59.0,5.0,-100.00,NE,36,13.0,20.0,11,-99.99,,,-99.99,,2013-02-28 20:52:00,
2013-02-28 13:01:00,59.0,6.0,-100.00,NE,42,14.0,24.0,12,-99.99,,,-99.99,,2013-02-28 21:01:00,
2013-02-28 13:11:00,59.0,6.0,-100.00,NE,38,12.0,22.0,12,-99.99,,,-99.99,,2013-02-28 21:11:00,
2013-02-28 13:22:00,59.0,6.0,-100.00,NE,37,14.0,23.0,12,-99.99,,,-99.99,,2013-02-28 21:22:00,
2013-02-28 13:31:00,59.0,6.0,-100.00,NNE,20,11.0,21.0,12,-99.99,,,-99.99,,2013-02-28 21:31:00,
2013-02-28 13:41:00,60.0,7.0,-100.00,NNE,22,11.0,19.0,12,-99.99,,,-99.99,,2013-02-28 21:41:00,
2013-02-28 13:51:00,59.0,5.0,-100.00,NNE,32,14.0,25.0,11,-99.99,,,-99.99,,2013-02-28 21:51:00,
2013-02-28 14:01:00,59.0,6.0,-100.00,NE,39,12.0,24.0,12,-99.99,,,-99.99,,2013-02-28 22:01:00,
2013-02-28 14:11:00,59.0,5.0,-100.00,NE,44,15.0,24.0,11,-99.99,,,-99.99,,2013-02-28 22:11:00,
2013-02-28 14:21:00,59.0,6.0,-100.00,NE,38,14.0,25.0,12,-99.99,,,-99.99,,2013-02-28 22:21:00,
2013-02-28 14:31:00,58.0,4.0,-100.00,NNE,33,15.0,22.0,11,-99.99,,,-99.99,,2013-02-28 22:31:00,
2013-02-28 14:41:00,58.0,4.0,-100.00,NNE,24,13.0,24.0,11,-99.99,,,-99.99,,2013-02-28 22:41:00,
2013-02-28 14:52:00,59.0,6.0,-100.00,NNE,20,12.0,17.0,12,-99.99,,,-99.99,,2013-02-28 22:52:00,
2013-02-28 15:01:00,59.0,6.0,-100.00,NNE,23,11.0,19.0,12,-99.99,,,-99.99,,2013-02-28 23:01:00,
2013-02-28 15:11:00,59.0,6.0,-100.00,NNE,20,11.0,19.0,12,-99.99,,,-99.99,,2013-02-28 23:11:00,
2013-02-28 15:21:00,59.0,6.0,-100.00,NNE,28,12.0,19.0,12,-99.99,,,-99.99,,2013-02-28 23:21:00,
2013-02-28 15:31:00,59.0,6.0,-100.00,NNE,23,12.0,18.0,12,-99.99,,,-99.99,,2013-02-28 23:31:00,
2013-02-28 15:41:00,59.0,6.0,-100.00,NNE,26,9.0,16.0,12,-99.99,,,-99.99,,2013-02-28 23:41:00,
2013-02-28 15:52:00,60.0,7.0,-100.00,NE,43,8.0,15.0,12,-99.99,,,-99.99,,2013-02-28 23:52:00,
2013-02-28 16:01:00,60.0,7.0,-100.00,NE,42,8.0,16.0,12,-99.99,,,-99.99,,2013-03-01 00:01:00,
2013-02-28 16:11:00,59.0,6.0,-100.00,NE,38,10.0,16.0,12,-99.99,,,-99.99,,2013-03-01 00:11:00,
2013-02-28 16:22:00,59.0,6.0,-100.00,NE,40,7.0,15.0,12,-99.99,,,-99.99,,2013-03-01 00:22:00,
2013-02-28 16:32:00,58.0,6.0,-100.00,NE,38,11.0,18.0,12,-99.99,,,-99.99,,2013-03-01 00:32:00,
2013-02-28 16:41:00,58.0,6.0,-100.00,NE,38,11.0,18.0,12,-99.99,,,-99.99,,2013-03-01 00:41:00,
2013-02-28 16:51:00,58.0,7.0,-100.00,North,9,7.0,12.0,13,-99.99,,,-99.99,,2013-03-01 00:51:00,
2013-02-28 17:01:00,58.0,7.0,-100.00,North,9,7.0,12.0,13,-99.99,,,-99.99,,2013-03-01 01:01:00,
2013-02-28 17:11:00,58.0,7.0,-100.00,North,11,8.0,13.0,13,-99.99,,,-99.99,,2013-03-01 01:11:00,
2013-02-28 17:21:00,58.0,7.0,-100.00,North,359,9.0,14.0,13,-99.99,,,-99.99,,2013-03-01 01:21:00,
2013-02-28 17:31:00,57.0,7.0,-100.00,NNE,17,10.0,17.0,13,-99.99,,,-99.99,,2013-03-01 01:31:00,
2013-02-28 17:42:00,57.0,7.0,-100.00,NNE,17,10.0,17.0,13,-99.99,,,-99.99,,2013-03-01 01:42:00,
2013-02-28 17:51:00,56.0,6.0,-100.00,NNE,20,9.0,14.0,13,-99.99,,,-99.99,,2013-03-01 01:51:00,
2013-02-28 18:01:00,55.0,5.0,-100.00,North,10,8.0,15.0,13,-99.99,,,-99.99,,2013-03-01 02:01:00,
2013-02-28 18:11:00,54.0,6.0,-100.00,NNE,24,6.0,10.0,14,-99.99,,,-99.99,,2013-03-01 02:11:00,
2013-02-28 18:21:00,54.0,6.0,-100.00,NE,44,8.0,13.0,14,-99.99,,,-99.99,,2013-03-01 02:21:00,
2013-02-28 18:31:00,53.0,5.0,-100.00,NE,41,6.0,9.0,14,-99.99,,,-99.99,,2013-03-01 02:31:00,
2013-02-28 18:42:00,53.0,5.0,-100.00,NNE,33,7.0,12.0,14,-99.99,,,-99.99,,2013-03-01 02:42:00,
2013-02-28 18:52:00,52.0,4.0,-100.00,NNE,31,8.0,16.0,14,-99.99,,,-99.99,,2013-03-01 02:52:00,
2013-02-28 19:01:00,52.0,4.0,-100.00,NNE,31,8.0,16.0,14,-99.99,,,-99.99,,2013-03-01 03:01:00,
2013-02-28 19:11:00,51.0,5.0,-100.00,NNE,22,7.0,11.0,15,-99.99,,,-99.99,,2013-03-01 03:11:00,
2013-02-28 19:21:00,51.0,5.0,-100.00,NNE,22,7.0,11.0,15,-99.99,,,-99.99,,2013-03-01 03:21:00,
2013-02-28 19:32:00,51.0,5.0,-100.00,NNE,14,6.0,9.0,15,-99.99,,,-99.99,,2013-03-01 03:32:00,
2013-02-28 19:41:00,50.0,4.0,-100.00,NNE,18,6.0,12.0,15,-99.99,,,-99.99,,2013-03-01 03:41:00,
2013-02-28 19:51:00,50.0,6.0,-100.00,NNE,28,6.0,9.0,16,-99.99,,,-99.99,,2013-03-01 03:51:00,
2013-02-28 20:01:00,51.0,5.0,-100.00,NE,35,5.0,10.0,15,-99.99,,,-99.99,,2013-03-01 04:01:00,
2013-02-28 20:11:00,51.0,4.0,-100.00,NNE,18,3.0,6.0,14,-99.99,,,-99.99,,2013-03-01 04:11:00,
2013-02-28 20:21:00,51.0,4.0,-100.00,NW,307,2.0,4.0,14,-99.99,,,-99.99,,2013-03-01 04:21:00,
2013-02-28 20:31:00,51.0,4.0,-100.00,West,272,3.0,4.0,14,-99.99,,,-99.99,,2013-03-01 04:31:00,
2013-02-28 20:41:00,51.0,5.0,-100.00,WSW,249,3.0,5.0,15,-99.99,,,-99.99,,2013-03-01 04:41:00,
2013-02-28 20:51:00,50.0,4.0,-100.00,South,177,2.0,5.0,15,-99.99,,,-99.99,,2013-03-01 04:51:00,
2013-02-28 21:01:00,52.0,4.0,-100.00,ESE,110,3.0,8.0,14,-99.99,,,-99.99,,2013-03-01 05:01:00,
2013-02-28 21:11:00,53.0,5.0,-100.00,NE,56,6.0,11.0,14,-99.99,,,-99.99,,2013-03-01 05:11:00,
2013-02-28 21:22:00,53.0,5.0,-100.00,NNE,33,4.0,8.0,14,-99.99,,,-99.99,,2013-03-01 05:22:00,
2013-02-28 21:32:00,53.0,5.0,-100.00,NNE,14,1.0,4.0,14,-99.99,,,-99.99,,2013-03-01 05:32:00,
2013-02-28 21:41:00,53.0,5.0,-100.00,NNE,14,1.0,4.0,14,-99.99,,,-99.99,,2013-03-01 05:41:00,
2013-02-28 21:52:00,52.0,4.0,-100.00,NW,310,2.0,7.0,14,-99.99,,,-99.99,,2013-03-01 05:52:00,
2013-02-28 22:01:00,52.0,4.0,-100.00,NNW,341,1.0,3.0,14,-99.99,,,-99.99,,2013-03-01 06:01:00,
2013-02-28 22:11:00,52.0,4.0,-100.00,NE,34,6.0,17.0,14,-99.99,,,-99.99,,2013-03-01 06:11:00,
2013-02-28 22:21:00,53.0,5.0,-100.00,NE,45,9.0,19.0,14,-99.99,,,-99.99,,2013-03-01 06:21:00,
2013-02-28 22:31:00,54.0,6.0,-100.00,ENE,64,8.0,19.0,14,-99.99,,,-99.99,,2013-03-01 06:31:00,
2013-02-28 22:42:00,54.0,6.0,-100.00,NE,53,6.0,16.0,14,-99.99,,,-99.99,,2013-03-01 06:42:00,
2013-02-28 22:52:00,54.0,6.0,-100.00,NE,38,9.0,18.0,14,-99.99,,,-99.99,,2013-03-01 06:52:00,
2013-02-28 23:01:00,54.0,6.0,-100.00,NE,38,9.0,18.0,14,-99.99,,,-99.99,,2013-03-01 07:01:00,
2013-02-28 23:11:00,54.0,6.0,-100.00,NE,47,10.0,20.0,14,-99.99,,,-99.99,,2013-03-01 07:11:00,
2013-02-28 23:21:00,55.0,7.0,-100.00,NE,37,11.0,24.0,14,-99.99,,,-99.99,,2013-03-01 07:21:00,
2013-02-28 23:32:00,52.0,6.0,-100.00,NE,36,9.0,16.0,15,-99.99,,,-99.99,,2013-03-01 07:32:00,
2013-02-28 23:42:00,53.0,7.0,-100.00,NE,56,9.0,15.0,15,-99.99,,,-99.99,,2013-03-01 07:42:00,
2013-02-28 23:51:00,54.0,6.0,-100.00,ENE,64,9.0,17.0,14,-99.99,,,-99.99,,2013-03-01 07:51:00,